Alabama Hills, California
Current Conditions -  °F | °C
As of 6:56 PM on Saturday 20 Dec 2014 (Local Time) from KBIH Reporting Station
Broken Clouds Broken Clouds  
Wind Chill: 38°   Ceiling: 12000
Heat Index: 41°   Visibility: 10mi
Dew Point: 31°   Wind: 5mph
Humidity: 67%   Direction: 290°WNW
Pressure: 30.15"   Gusts: NA
Location:  36.6126°N, 118.162°W
Report Text: KBIH 210256Z AUTO 29004KT 10SM BKN120 05/M01 A3015 RMK AO2 SLP212 T00501006 53012
Loading
Personal Weather Stations






























Interactive Weather Map New forecast layout! Learn more

10-Day Weather Forecast

Advertisements
Track Severe Weather on mobile